Weather at Pista Forestal Valdelamusa

Public forecast

Using degrees Celsius for public forecast. Weather courtesy of forecast.io.

Closest aviation weather report (METAR) to Pista Forestal Valdelamusa

Closest report is Base Aérea de El Copero, 50.4 nm (93.4 km) ESE.

2024/07/25 09:30 (retrieved 15 minutes ago)

LEEC 250930Z 21008KT 150V270 CAVOK 29/17 Q1011

Closest aviation forecast (TAF) to Pista Forestal Valdelamusa

Closest forecast is Base Aérea de El Copero, 50.4 nm (93.4 km) ESE.

2024/07/25 09:00 (retrieved 45 minutes ago)

TAF LEEC 250800Z 2509/2609 22009KT CAVOK TX39/2514Z TN21/2605Z TEMPO 2512/2518 21016G28KT